createdAt,value
2018-03-30T00:02:15.597Z,69.80
2018-03-30T00:04:42.202Z,84.50
2018-03-30T00:07:09.606Z,60.50
2018-03-30T00:09:54.586Z,61.60
2018-03-30T00:12:21.197Z,76.10
2018-03-30T00:14:48.538Z,60.30
2018-03-30T00:17:15.173Z,59.80
2018-03-30T00:19:42.585Z,73.60
2018-03-30T00:22:09.202Z,59.90
2018-03-30T00:24:35.867Z,79.10
2018-03-30T00:27:02.498Z,61.70
2018-03-30T00:29:29.091Z,75.20
2018-03-30T00:31:55.728Z,65.00
2018-03-30T00:34:22.313Z,61.40
2018-03-30T00:36:49.017Z,62.10
2018-03-30T00:39:15.632Z,70.00
2018-03-30T00:41:43.874Z,58.90
2018-03-30T00:44:10.522Z,58.20
2018-03-30T00:46:37.094Z,60.00
2018-03-30T00:49:04.434Z,58.20
2018-03-30T00:51:31.030Z,58.90
2018-03-30T00:53:57.667Z,64.50
2018-03-30T00:56:25.063Z,58.30
2018-03-30T00:58:52.409Z,58.40
2018-03-30T01:01:19.844Z,58.30
2018-03-30T01:03:47.209Z,58.20
2018-03-30T01:08:42.866Z,60.40
2018-03-30T01:11:10.246Z,62.00
2018-03-30T01:13:37.654Z,62.50
2018-03-30T01:16:05.075Z,62.80
2018-03-30T01:18:32.419Z,61.00
2018-03-30T01:20:59.785Z,59.80
2018-03-30T01:23:27.175Z,59.70
2018-03-30T01:25:54.577Z,60.80
2018-03-30T01:28:21.905Z,61.80
2018-03-30T01:30:49.240Z,62.50
2018-03-30T01:33:16.700Z,63.00
2018-03-30T01:35:44.071Z,63.10
2018-03-30T01:38:11.387Z,62.70
2018-03-30T01:40:40.269Z,60.50
2018-03-30T01:43:07.904Z,59.40
2018-03-30T01:45:35.234Z,59.30
2018-03-30T01:48:02.624Z,60.10
2018-03-30T01:50:30.031Z,60.70
2018-03-30T01:52:57.447Z,59.90
2018-03-30T01:55:25.528Z,59.90
2018-03-30T01:57:52.852Z,58.30
2018-03-30T02:00:21.002Z,58.60
2018-03-30T02:02:48.558Z,58.00
2018-03-30T02:05:15.894Z,58.10
2018-03-30T02:07:43.260Z,57.50
2018-03-30T02:10:11.583Z,57.10
2018-03-30T02:12:38.982Z,56.80
2018-03-30T02:15:06.438Z,56.90
2018-03-30T02:17:33.874Z,57.00
2018-03-30T02:20:02.039Z,58.00
2018-03-30T02:22:29.362Z,57.90
2018-03-30T02:24:56.712Z,57.90
2018-03-30T02:27:24.703Z,57.80
2018-03-30T02:29:52.780Z,58.40
2018-03-30T02:32:20.116Z,57.90
2018-03-30T02:34:47.631Z,57.00
2018-03-30T02:37:15.002Z,57.60
2018-03-30T02:39:42.331Z,57.20
2018-03-30T02:42:09.662Z,57.50
2018-03-30T02:44:37.907Z,57.80
2018-03-30T02:47:05.290Z,57.70
2018-03-30T02:49:32.631Z,57.80
2018-03-30T02:52:00.717Z,57.50
2018-03-30T02:54:28.086Z,57.40
2018-03-30T02:56:55.651Z,57.80
2018-03-30T02:59:22.968Z,56.70
2018-03-30T03:01:50.303Z,56.40
2018-03-30T03:04:18.646Z,56.20
2018-03-30T03:06:45.983Z,57.10
2018-03-30T03:09:13.439Z,57.60
2018-03-30T03:11:40.760Z,58.10
2018-03-30T03:14:08.798Z,60.10
2018-03-30T03:16:36.174Z,58.80
2018-03-30T03:19:03.792Z,59.10
2018-03-30T03:21:31.120Z,59.50
2018-03-30T03:23:59.470Z,58.80
2018-03-30T03:26:26.806Z,59.60
2018-03-30T03:28:54.199Z,59.90
2018-03-30T03:31:22.114Z,61.00
2018-03-30T03:33:49.735Z,61.70
2018-03-30T03:36:17.094Z,61.80
2018-03-30T03:38:44.512Z,61.80
2018-03-30T03:41:11.950Z,61.40
2018-03-30T03:43:39.339Z,61.50
2018-03-30T03:46:07.460Z,62.00
2018-03-30T03:48:34.777Z,61.40
2018-03-30T03:51:02.058Z,61.70
2018-03-30T03:53:30.128Z,61.60
2018-03-30T03:55:57.569Z,61.10
2018-03-30T03:58:24.981Z,60.90
2018-03-30T04:00:52.302Z,61.50
2018-03-30T04:03:19.746Z,61.30
2018-03-30T04:05:47.067Z,60.10
2018-03-30T04:08:14.954Z,59.60
2018-03-30T04:10:42.275Z,60.30
2018-03-30T04:13:09.568Z,62.80
2018-03-30T04:15:36.895Z,63.50
2018-03-30T04:18:05.478Z,65.10
2018-03-30T04:20:33.562Z,64.90
2018-03-30T04:23:00.930Z,65.30
2018-03-30T04:25:28.330Z,66.10
2018-03-30T04:27:56.496Z,66.30
2018-03-30T04:30:23.874Z,65.50
2018-03-30T04:32:51.184Z,65.30
2018-03-30T04:35:18.773Z,64.50
2018-03-30T04:37:46.065Z,62.40
2018-03-30T04:40:13.391Z,62.00
2018-03-30T04:42:40.827Z,62.60
2018-03-30T04:45:08.223Z,62.80
2018-03-30T04:47:35.506Z,62.90
2018-03-30T04:50:02.964Z,62.80
2018-03-30T04:52:31.018Z,62.90
2018-03-30T04:54:58.378Z,61.10
2018-03-30T04:57:25.863Z,60.60
2018-03-30T04:59:53.849Z,60.70
2018-03-30T05:02:21.242Z,59.40
2018-03-30T05:07:17.068Z,57.20
2018-03-30T05:09:44.367Z,56.90
2018-03-30T05:12:11.597Z,56.40
2018-03-30T05:14:38.805Z,55.70
2018-03-30T05:17:07.080Z,55.00
2018-03-30T05:22:04.743Z,54.10
2018-03-30T05:24:32.082Z,53.40
2018-03-30T05:26:59.628Z,53.30
2018-03-30T05:31:56.332Z,52.50
2018-03-30T05:34:23.726Z,52.70
2018-03-30T05:36:51.006Z,52.40
2018-03-30T05:44:16.009Z,51.50
2018-03-30T05:49:11.851Z,50.50
2018-03-30T05:51:39.319Z,49.70
2018-03-30T05:56:35.055Z,47.90
2018-03-30T06:01:30.737Z,47.20
2018-03-30T06:03:58.801Z,47.20
2018-03-30T06:06:26.142Z,46.50
2018-03-30T06:11:22.186Z,45.90
2018-03-30T06:13:49.506Z,45.40
2018-03-30T06:18:45.284Z,44.40
2018-03-30T06:21:12.690Z,42.60
2018-03-30T06:23:39.985Z,42.70
2018-03-30T06:26:08.227Z,42.90
2018-03-30T06:28:35.591Z,41.50
2018-03-30T06:31:02.946Z,41.10
2018-03-30T06:33:30.310Z,40.10
2018-03-30T06:35:57.781Z,38.90
2018-03-30T06:38:25.153Z,38.20
2018-03-30T06:40:52.498Z,36.90
2018-03-30T06:43:21.256Z,36.90
2018-03-30T06:45:48.566Z,36.30
2018-03-30T06:48:16.866Z,37.10
2018-03-30T06:50:44.286Z,35.90
2018-03-30T06:53:11.774Z,37.00
2018-03-30T06:55:39.127Z,34.80
2018-03-30T06:58:06.499Z,35.60
2018-03-30T07:00:34.263Z,34.90
2018-03-30T07:03:01.661Z,33.60
2018-03-30T07:07:58.947Z,33.00
2018-03-30T07:12:57.064Z,32.60
2018-03-30T07:15:24.466Z,31.60
2018-03-30T07:17:52.564Z,32.70
2018-03-30T07:20:19.916Z,31.10
2018-03-30T07:22:47.293Z,31.20
2018-03-30T07:25:14.658Z,30.60
2018-03-30T07:27:42.010Z,29.20
2018-03-30T07:30:09.331Z,27.90
2018-03-30T07:32:36.707Z,27.60
2018-03-30T07:35:04.163Z,26.80
2018-03-30T07:37:31.523Z,26.20
2018-03-30T07:39:58.906Z,26.50
2018-03-30T07:44:54.795Z,24.40
2018-03-30T07:47:22.114Z,24.10
2018-03-30T07:49:50.500Z,23.10
2018-03-30T07:52:17.840Z,22.90
2018-03-30T07:54:45.204Z,23.10
2018-03-30T07:57:13.261Z,24.50
2018-03-30T07:59:40.602Z,23.10
2018-03-30T08:02:07.951Z,22.00
2018-03-30T08:04:35.815Z,20.70
2018-03-30T08:07:03.235Z,21.60
2018-03-30T08:09:30.570Z,20.20
2018-03-30T08:11:59.370Z,21.40
2018-03-30T08:14:26.775Z,20.40
2018-03-30T08:16:54.877Z,20.30
2018-03-30T08:19:22.416Z,19.60
2018-03-30T08:21:50.649Z,19.40
2018-03-30T08:24:18.032Z,18.90
2018-03-30T08:26:45.431Z,18.40
2018-03-30T08:29:12.947Z,18.30
2018-03-30T08:31:40.320Z,19.10
2018-03-30T08:34:07.602Z,18.10
2018-03-30T08:36:34.994Z,16.60
2018-03-30T08:39:02.394Z,18.10
2018-03-30T08:41:29.794Z,17.00
2018-03-30T08:43:57.154Z,17.40
2018-03-30T08:46:24.511Z,16.10
2018-03-30T08:48:51.876Z,14.90
2018-03-30T08:51:19.272Z,15.30
2018-03-30T08:53:47.365Z,15.70
2018-03-30T08:56:14.742Z,16.20
2018-03-30T08:58:42.267Z,16.80
2018-03-30T09:01:09.690Z,15.90
2018-03-30T09:03:37.080Z,15.40
2018-03-30T09:06:04.459Z,15.70
2018-03-30T09:08:31.919Z,15.70
2018-03-30T09:10:59.294Z,13.80
2018-03-30T09:13:26.674Z,14.20
2018-03-30T09:15:54.046Z,13.90
2018-03-30T09:18:21.467Z,14.20
2018-03-30T09:20:48.801Z,13.30
2018-03-30T09:23:16.148Z,13.30
2018-03-30T09:25:43.571Z,14.90
2018-03-30T09:28:10.912Z,12.20
2018-03-30T09:30:39.036Z,14.40
2018-03-30T09:33:06.454Z,14.50
2018-03-30T09:35:33.848Z,15.50
2018-03-30T09:38:01.182Z,15.00
2018-03-30T09:40:28.640Z,14.80
2018-03-30T09:42:55.988Z,15.50
2018-03-30T09:45:23.411Z,14.10
2018-03-30T09:47:50.727Z,13.60
2018-03-30T09:50:18.116Z,13.60
2018-03-30T09:52:45.434Z,15.20
2018-03-30T09:55:12.838Z,15.30
2018-03-30T09:57:40.930Z,16.80
2018-03-30T10:00:08.310Z,16.40
2018-03-30T10:02:35.710Z,15.60
2018-03-30T10:05:03.088Z,16.30
2018-03-30T10:07:30.470Z,16.40
2018-03-30T10:09:57.857Z,16.60
2018-03-30T10:12:25.255Z,15.50
2018-03-30T10:14:52.603Z,14.70
2018-03-30T10:17:20.019Z,15.70
2018-03-30T10:19:47.367Z,15.30
2018-03-30T10:22:14.785Z,15.10
2018-03-30T10:24:42.156Z,15.30
2018-03-30T10:27:09.532Z,16.60
2018-03-30T10:29:36.876Z,15.50
2018-03-30T10:32:04.260Z,15.50
2018-03-30T10:34:31.818Z,15.90
2018-03-30T10:36:59.177Z,16.00
2018-03-30T10:39:26.577Z,14.70
2018-03-30T10:41:53.976Z,15.30
2018-03-30T10:44:21.323Z,15.30
2018-03-30T10:46:48.710Z,15.90
2018-03-30T10:49:16.050Z,15.20
2018-03-30T10:51:43.470Z,16.80
2018-03-30T10:54:10.851Z,16.70
2018-03-30T10:56:38.203Z,17.10
2018-03-30T10:59:06.335Z,17.00
2018-03-30T11:01:33.706Z,16.20
2018-03-30T11:04:01.102Z,16.90
2018-03-30T11:06:28.536Z,16.50
2018-03-30T11:08:56.128Z,15.60
2018-03-30T11:11:23.540Z,15.90
2018-03-30T11:13:51.905Z,16.50
2018-03-30T11:16:19.353Z,17.30
2018-03-30T11:18:46.710Z,17.50
2018-03-30T11:21:14.152Z,16.70
2018-03-30T11:23:41.526Z,16.60
2018-03-30T11:26:08.922Z,17.20
2018-03-30T11:28:36.278Z,16.70
2018-03-30T11:31:03.684Z,16.80
2018-03-30T11:33:31.115Z,17.80
2018-03-30T11:35:58.518Z,16.20
2018-03-30T11:38:25.839Z,16.60
2018-03-30T11:40:53.265Z,17.50
2018-03-30T11:43:20.629Z,17.80
2018-03-30T11:45:48.887Z,17.60
2018-03-30T11:48:16.255Z,16.10
2018-03-30T11:50:43.613Z,16.40
2018-03-30T11:53:11.004Z,16.70
2018-03-30T11:55:38.443Z,16.70
2018-03-30T11:58:05.869Z,16.80
2018-03-30T12:00:33.225Z,16.70
2018-03-30T12:03:00.643Z,16.80
2018-03-30T12:05:28.010Z,17.10
2018-03-30T12:07:55.501Z,15.60
2018-03-30T12:10:22.980Z,16.10
2018-03-30T12:12:50.431Z,16.60
2018-03-30T12:15:17.890Z,17.70
2018-03-30T12:17:45.436Z,17.30
2018-03-30T12:20:12.836Z,17.70
2018-03-30T12:22:40.168Z,16.70
2018-03-30T12:25:07.533Z,18.40
2018-03-30T12:27:34.977Z,17.20
2018-03-30T12:30:02.850Z,18.10
2018-03-30T12:32:30.177Z,17.90
2018-03-30T12:34:58.423Z,19.30
2018-03-30T12:37:25.767Z,19.90
2018-03-30T12:39:53.240Z,19.80
2018-03-30T12:42:20.628Z,20.40
2018-03-30T12:44:47.973Z,20.60
2018-03-30T12:47:15.367Z,20.10
2018-03-30T12:49:42.755Z,19.80
2018-03-30T12:52:10.166Z,19.90
2018-03-30T12:54:37.550Z,20.80
2018-03-30T12:57:05.550Z,20.90
2018-03-30T12:59:33.072Z,21.50
2018-03-30T13:02:00.524Z,22.10
2018-03-30T13:04:27.887Z,21.80
2018-03-30T13:06:55.446Z,22.90
2018-03-30T13:09:22.765Z,22.10
2018-03-30T13:11:50.167Z,22.90
2018-03-30T13:14:17.618Z,23.60
2018-03-30T13:16:45.057Z,23.90
2018-03-30T13:19:12.374Z,24.00
2018-03-30T13:21:40.024Z,24.90
2018-03-30T13:24:08.259Z,24.10
2018-03-30T13:26:35.659Z,24.70
2018-03-30T13:29:02.996Z,24.70
2018-03-30T13:31:31.092Z,25.50
2018-03-30T13:33:58.455Z,25.30
2018-03-30T13:36:25.805Z,25.10
2018-03-30T13:38:53.521Z,25.20
2018-03-30T13:41:20.849Z,25.20
2018-03-30T13:43:48.186Z,25.50
2018-03-30T13:46:16.359Z,25.00
2018-03-30T13:48:43.735Z,25.40
2018-03-30T13:51:21.143Z,24.10
2018-03-30T13:54:05.385Z,25.00
2018-03-30T13:56:33.632Z,25.40
2018-03-30T13:59:05.899Z,24.90
2018-03-30T14:01:36.254Z,24.70
2018-03-30T14:04:12.227Z,24.20
2018-03-30T14:07:11.202Z,24.20
2018-03-30T14:09:55.532Z,24.50
2018-03-30T14:12:37.594Z,24.10
2018-03-30T14:15:20.855Z,24.60
2018-03-30T14:20:42.992Z,25.30
2018-03-30T14:23:17.118Z,24.90
2018-03-30T14:25:48.296Z,24.20
2018-03-30T14:28:20.366Z,24.20
2018-03-30T14:31:06.307Z,24.80
2018-03-30T14:33:34.622Z,24.20
2018-03-30T14:36:22.832Z,24.40
2018-03-30T14:38:54.085Z,24.50
2018-03-30T14:41:21.557Z,24.60
2018-03-30T14:43:50.058Z,24.40
2018-03-30T14:46:34.224Z,24.30
2018-03-30T14:49:06.931Z,24.20
2018-03-30T15:05:42.224Z,24.40
2018-03-30T15:22:13.211Z,26.50
2018-03-30T16:37:51.916Z,49.90
2018-03-30T16:42:48.706Z,48.80
2018-03-30T19:34:07.251Z,58.00
2018-03-30T19:56:28.871Z,57.50
